createdAt,value
2022-11-03T00:01:41.762Z,8.44
2022-11-03T00:04:11.088Z,8.50
2022-11-03T00:06:37.834Z,8.40
2022-11-03T00:09:05.678Z,8.52
2022-11-03T00:11:33.659Z,8.50
2022-11-03T00:14:00.708Z,8.54
2022-11-03T00:16:27.451Z,8.65
2022-11-03T00:18:54.246Z,8.49
2022-11-03T00:21:20.989Z,8.62
2022-11-03T00:23:47.439Z,8.51
2022-11-03T00:26:13.876Z,8.55
2022-11-03T00:28:41.559Z,8.62
2022-11-03T00:31:11.707Z,8.46
2022-11-03T00:33:41.092Z,8.62
2022-11-03T00:36:08.086Z,8.46
2022-11-03T00:38:34.593Z,8.53
2022-11-03T00:41:01.702Z,8.56
2022-11-03T00:43:29.438Z,8.44
2022-11-03T00:45:55.959Z,8.57
2022-11-03T00:48:34.882Z,8.40
2022-11-03T00:51:02.482Z,8.50
2022-11-03T00:53:29.810Z,8.46
2022-11-03T00:55:58.157Z,8.40
2022-11-03T00:58:24.766Z,8.51
2022-11-03T01:00:53.229Z,8.34
2022-11-03T01:03:19.769Z,8.45
2022-11-03T01:06:07.653Z,8.39
2022-11-03T01:08:35.061Z,8.42
2022-11-03T01:11:24.202Z,8.46
2022-11-03T01:13:50.871Z,8.36
2022-11-03T01:16:17.419Z,8.50
2022-11-03T01:18:43.841Z,8.30
2022-11-03T01:21:10.270Z,8.41
2022-11-03T01:23:36.729Z,8.38
2022-11-03T01:26:07.550Z,8.22
2022-11-03T01:28:37.726Z,8.38
2022-11-03T01:31:08.341Z,8.29
2022-11-03T01:33:34.880Z,8.25
2022-11-03T01:36:01.373Z,8.40
2022-11-03T01:38:31.087Z,8.20
2022-11-03T01:40:57.517Z,8.32
2022-11-03T01:43:24.340Z,8.26
2022-11-03T01:45:53.490Z,8.18
2022-11-03T01:48:21.592Z,8.29
2022-11-03T01:50:49.026Z,8.14
2022-11-03T01:53:16.517Z,8.22
2022-11-03T01:55:43.505Z,8.23
2022-11-03T01:58:23.925Z,8.18
2022-11-03T02:00:52.394Z,8.25
2022-11-03T02:03:18.942Z,8.06
2022-11-03T02:05:47.028Z,8.16
2022-11-03T02:08:16.020Z,8.05
2022-11-03T02:10:42.701Z,8.00
2022-11-03T02:13:19.297Z,8.03
2022-11-03T02:15:47.494Z,7.77
2022-11-03T02:18:14.638Z,7.88
2022-11-03T02:20:41.761Z,7.75
2022-11-03T02:23:11.298Z,7.62
2022-11-03T02:25:45.259Z,7.76
2022-11-03T02:28:13.629Z,7.52
2022-11-03T02:30:44.034Z,7.59
2022-11-03T02:33:20.735Z,7.46
2022-11-03T02:35:51.634Z,7.39
2022-11-03T02:38:19.951Z,7.47
2022-11-03T02:40:49.078Z,7.31
2022-11-03T02:43:18.465Z,7.42
2022-11-03T02:45:47.378Z,7.28
2022-11-03T02:48:15.132Z,7.25
2022-11-03T02:50:41.697Z,7.39
2022-11-03T02:53:12.201Z,7.23
2022-11-03T02:55:57.990Z,7.38
2022-11-03T02:58:24.574Z,7.40
2022-11-03T03:00:53.945Z,7.50
2022-11-03T03:03:32.694Z,7.56
2022-11-03T03:06:10.152Z,7.46
2022-11-03T03:08:39.748Z,7.65
2022-11-03T03:11:06.613Z,7.59
2022-11-03T03:13:33.625Z,7.63
2022-11-03T03:16:06.196Z,7.73
2022-11-03T03:18:40.781Z,7.68
2022-11-03T03:21:15.370Z,7.83
2022-11-03T03:23:48.107Z,7.70
2022-11-03T03:26:22.340Z,7.71
2022-11-03T03:28:59.823Z,7.84
2022-11-03T03:31:29.881Z,7.71
2022-11-03T03:34:04.814Z,7.86
2022-11-03T03:36:32.509Z,7.81
2022-11-03T03:39:00.994Z,7.77
2022-11-03T03:41:28.529Z,7.93
2022-11-03T03:43:59.290Z,7.80
2022-11-03T03:46:29.201Z,7.78
2022-11-03T03:48:56.318Z,7.84
2022-11-03T03:51:24.373Z,7.71
2022-11-03T03:53:55.423Z,7.82
2022-11-03T03:56:26.310Z,7.73
2022-11-03T03:58:52.729Z,7.66
2022-11-03T04:01:19.255Z,7.79
2022-11-03T04:03:47.385Z,7.59
2022-11-03T04:06:13.843Z,7.58
2022-11-03T04:08:40.308Z,7.54
2022-11-03T04:11:25.245Z,7.31
2022-11-03T04:14:10.042Z,7.44
2022-11-03T04:16:55.155Z,7.18
2022-11-03T04:19:39.966Z,7.09
2022-11-03T04:22:16.689Z,6.96
2022-11-03T04:24:49.563Z,6.78
2022-11-03T04:27:18.743Z,6.84
2022-11-03T04:29:45.197Z,6.63
2022-11-03T04:32:16.823Z,6.53
2022-11-03T04:34:45.469Z,6.54
2022-11-03T04:37:12.847Z,6.22
2022-11-03T04:39:39.274Z,6.21
2022-11-03T04:42:21.382Z,6.12
2022-11-03T04:44:48.313Z,5.92
2022-11-03T04:47:16.069Z,6.01
2022-11-03T04:49:43.119Z,5.75
2022-11-03T04:52:23.024Z,5.58
2022-11-03T04:54:50.718Z,5.78
2022-11-03T04:57:17.444Z,5.58
2022-11-03T04:59:45.729Z,5.52
2022-11-03T05:02:14.058Z,5.68
2022-11-03T05:04:41.473Z,5.59
2022-11-03T05:07:31.366Z,5.68
2022-11-03T05:09:58.073Z,5.82
2022-11-03T05:12:25.043Z,5.70
2022-11-03T05:14:55.582Z,5.71
2022-11-03T05:17:28.344Z,5.83
2022-11-03T05:19:57.359Z,5.74
2022-11-03T05:22:25.469Z,5.55
2022-11-03T05:24:58.216Z,5.50
2022-11-03T05:27:24.986Z,5.00
2022-11-03T05:29:55.135Z,5.14
2022-11-03T05:32:25.982Z,5.28
2022-11-03T05:34:54.149Z,5.42
2022-11-03T05:37:26.120Z,5.61
2022-11-03T05:39:57.487Z,5.45
2022-11-03T05:42:23.859Z,5.00
2022-11-03T05:44:51.144Z,5.02
2022-11-03T05:47:26.622Z,4.95
2022-11-03T05:49:55.659Z,4.76
2022-11-03T05:52:24.618Z,4.89
2022-11-03T05:54:52.273Z,4.35
2022-11-03T05:57:21.869Z,4.21
2022-11-03T05:59:49.818Z,4.40
2022-11-03T06:02:28.803Z,4.41
2022-11-03T06:04:57.373Z,4.30
2022-11-03T06:07:24.955Z,4.40
2022-11-03T06:09:52.468Z,4.13
2022-11-03T06:12:20.326Z,4.22
2022-11-03T06:14:46.823Z,4.06
2022-11-03T06:17:22.219Z,3.59
2022-11-03T06:19:49.349Z,3.56
2022-11-03T06:22:20.868Z,3.45
2022-11-03T06:24:47.590Z,3.47
2022-11-03T06:27:18.894Z,3.57
2022-11-03T06:30:08.406Z,3.65
2022-11-03T06:32:34.853Z,3.70
2022-11-03T06:35:01.261Z,3.86
2022-11-03T06:37:33.526Z,3.90
2022-11-03T06:40:26.328Z,3.36
2022-11-03T06:42:53.859Z,3.48
2022-11-03T06:45:22.600Z,3.37
2022-11-03T06:47:49.434Z,3.56
2022-11-03T06:50:22.043Z,3.77
2022-11-03T06:55:23.197Z,4.48
2022-11-03T06:57:52.730Z,4.56
2022-11-03T07:00:41.003Z,4.74
2022-11-03T07:03:08.846Z,5.02
2022-11-03T07:05:37.291Z,5.20
2022-11-03T07:08:12.097Z,5.26
2022-11-03T07:10:39.067Z,5.15
2022-11-03T07:13:18.429Z,5.16
2022-11-03T07:15:45.614Z,5.03
2022-11-03T07:18:16.890Z,4.66
2022-11-03T07:20:43.281Z,4.96
2022-11-03T07:23:13.007Z,5.20
2022-11-03T07:25:39.474Z,5.37
2022-11-03T07:28:06.259Z,5.51
2022-11-03T07:30:36.325Z,5.59
2022-11-03T07:33:10.859Z,5.54
2022-11-03T07:36:13.081Z,5.59
2022-11-03T07:38:28.274Z,5.66
2022-11-03T07:40:59.253Z,5.61
2022-11-03T07:43:29.062Z,5.73
2022-11-03T07:45:56.118Z,5.91
2022-11-03T07:48:25.491Z,5.89
2022-11-03T07:50:53.534Z,5.93
2022-11-03T07:53:31.955Z,6.12
2022-11-03T07:55:59.913Z,6.11
2022-11-03T07:58:35.329Z,6.13
2022-11-03T08:01:02.170Z,6.23
2022-11-03T08:03:36.015Z,6.32
2022-11-03T08:06:06.105Z,6.26
2022-11-03T08:08:35.510Z,6.39
2022-11-03T08:11:02.062Z,6.50
2022-11-03T08:13:31.498Z,6.47
2022-11-03T08:15:58.873Z,6.61
2022-11-03T08:18:25.568Z,6.73
2022-11-03T08:20:52.169Z,6.70
2022-11-03T08:23:25.580Z,6.78
2022-11-03T08:25:52.490Z,6.87
2022-11-03T08:28:18.941Z,6.78
2022-11-03T08:30:45.457Z,6.90
2022-11-03T08:33:12.000Z,6.96
2022-11-03T08:35:38.655Z,6.90
2022-11-03T08:38:05.344Z,7.08
2022-11-03T08:40:32.057Z,7.10
2022-11-03T08:42:58.776Z,7.12
2022-11-03T08:45:25.269Z,7.32
2022-11-03T08:47:51.702Z,7.16
2022-11-03T08:50:18.123Z,7.27
2022-11-03T08:52:44.533Z,7.25
2022-11-03T08:55:10.983Z,7.12
2022-11-03T08:57:37.385Z,7.24
2022-11-03T09:00:08.637Z,7.23
2022-11-03T09:02:35.151Z,7.19
2022-11-03T09:05:02.268Z,7.39
2022-11-03T09:12:45.814Z,7.44
2022-11-03T09:15:12.229Z,7.32
2022-11-03T09:17:40.641Z,7.35
2022-11-03T09:20:10.656Z,7.46
2022-11-03T09:22:37.178Z,7.39
2022-11-03T09:25:05.121Z,7.39
2022-11-03T09:27:32.048Z,7.52
2022-11-03T09:30:12.830Z,7.37
2022-11-03T09:32:40.170Z,7.42
2022-11-03T09:35:06.983Z,7.48
2022-11-03T09:37:33.494Z,7.38
2022-11-03T09:40:00.103Z,7.50
2022-11-03T09:42:26.930Z,7.52
2022-11-03T09:44:54.716Z,7.49
2022-11-03T09:47:27.775Z,7.66
2022-11-03T09:49:54.251Z,7.68
2022-11-03T09:52:22.375Z,7.63
2022-11-03T09:54:49.013Z,7.82
2022-11-03T09:57:16.194Z,7.75
2022-11-03T09:59:44.104Z,7.75
2022-11-03T10:02:30.961Z,7.86
2022-11-03T10:05:00.490Z,7.72
2022-11-03T10:07:28.870Z,7.80
2022-11-03T10:09:56.701Z,7.81
2022-11-03T10:12:23.926Z,7.69
2022-11-03T10:14:50.784Z,7.80
2022-11-03T10:17:18.918Z,7.76
2022-11-03T10:19:48.016Z,7.66
2022-11-03T10:22:14.662Z,7.76
2022-11-03T10:24:41.159Z,7.76
2022-11-03T10:27:20.780Z,7.68
2022-11-03T10:30:03.009Z,7.85
2022-11-03T10:32:30.203Z,7.69
2022-11-03T10:34:56.585Z,7.67
2022-11-03T10:37:26.037Z,7.81
2022-11-03T10:39:54.020Z,7.74
2022-11-03T10:42:31.981Z,7.78
2022-11-03T10:45:20.468Z,7.83
2022-11-03T10:48:08.293Z,7.80
2022-11-03T10:50:35.070Z,7.92
2022-11-03T10:53:01.866Z,7.81
2022-11-03T10:55:28.662Z,7.78
2022-11-03T10:57:58.709Z,7.92
2022-11-03T11:00:25.371Z,7.77
2022-11-03T11:02:56.822Z,7.75
2022-11-03T11:05:24.812Z,7.88
2022-11-03T11:07:53.096Z,7.76
2022-11-03T11:10:23.973Z,7.80
2022-11-03T11:13:12.426Z,7.86
2022-11-03T11:15:58.378Z,7.75
2022-11-03T11:18:27.967Z,7.86
2022-11-03T11:20:57.358Z,7.86
2022-11-03T11:23:26.863Z,7.80
2022-11-03T11:26:14.285Z,7.95
2022-11-03T11:28:45.113Z,7.89
2022-11-03T11:31:34.840Z,7.90
2022-11-03T11:34:10.622Z,8.08
2022-11-03T11:36:38.002Z,8.05
2022-11-03T11:39:10.472Z,8.15
2022-11-03T11:41:55.833Z,8.18
2022-11-03T11:44:40.548Z,8.11
2022-11-03T11:47:25.794Z,8.26
2022-11-03T11:50:07.639Z,8.19
2022-11-03T11:52:34.037Z,8.22
2022-11-03T11:55:00.511Z,8.29
2022-11-03T11:57:30.352Z,8.16
2022-11-03T11:59:56.761Z,8.09
2022-11-03T12:02:24.075Z,8.15
2022-11-03T12:04:59.685Z,8.27
2022-11-03T12:07:35.826Z,8.16
2022-11-03T12:10:21.398Z,8.14
2022-11-03T12:12:50.143Z,8.32
2022-11-03T12:15:35.362Z,8.25
2022-11-03T12:18:21.785Z,8.22
2022-11-03T12:20:48.329Z,8.39
2022-11-03T12:23:32.074Z,8.32
2022-11-03T12:25:58.929Z,8.29
2022-11-03T12:28:35.980Z,8.42
2022-11-03T12:31:02.515Z,8.31
2022-11-03T12:33:29.264Z,8.39
2022-11-03T12:35:56.334Z,8.46
2022-11-03T12:38:23.198Z,8.38
2022-11-03T12:40:49.829Z,8.48
2022-11-03T12:43:16.691Z,8.56
2022-11-03T12:45:43.309Z,8.60
2022-11-03T12:48:09.723Z,8.64
2022-11-03T12:50:37.704Z,8.69
2022-11-03T12:53:04.743Z,8.69
2022-11-03T12:55:31.496Z,8.69
2022-11-03T12:57:57.946Z,8.70
2022-11-03T13:00:24.633Z,8.69
2022-11-03T13:02:51.452Z,8.69
2022-11-03T13:05:19.159Z,8.69
2022-11-03T13:07:47.609Z,8.72
2022-11-03T13:10:16.014Z,8.69
2022-11-03T13:12:44.589Z,8.71
2022-11-03T13:15:15.791Z,8.73
2022-11-03T13:20:28.690Z,8.69
2022-11-03T13:22:55.154Z,8.71
2022-11-03T13:25:24.423Z,8.72
2022-11-03T13:27:54.032Z,8.72
2022-11-03T13:30:24.990Z,8.68
2022-11-03T13:32:51.574Z,8.71
2022-11-03T13:35:20.565Z,8.72
2022-11-03T13:37:47.069Z,8.71
2022-11-03T13:40:35.870Z,8.68
2022-11-03T13:43:00.387Z,8.66
2022-11-03T13:45:27.578Z,8.63
2022-11-03T13:48:39.646Z,8.60
2022-11-03T13:50:41.297Z,8.60
2022-11-03T13:55:56.243Z,8.60
2022-11-03T14:01:13.573Z,8.55
2022-11-03T14:06:27.486Z,8.55
2022-11-03T14:08:53.874Z,8.58
2022-11-03T14:11:40.686Z,8.63
2022-11-03T14:14:07.074Z,8.65
2022-11-03T14:16:34.065Z,8.64
2022-11-03T14:19:00.564Z,8.64
2022-11-03T14:21:27.065Z,8.65
2022-11-03T14:23:53.666Z,8.64
2022-11-03T14:26:33.052Z,8.62
2022-11-03T14:29:08.461Z,8.63
2022-11-03T14:31:36.831Z,8.64
2022-11-03T14:34:03.405Z,8.63
2022-11-03T14:36:29.933Z,8.63
2022-11-03T14:38:56.555Z,8.65
2022-11-03T14:41:41.508Z,8.64
2022-11-03T14:44:08.121Z,8.60
2022-11-03T14:46:34.612Z,8.59
2022-11-03T14:49:02.001Z,8.59
2022-11-03T14:51:29.173Z,8.57
2022-11-03T14:53:56.953Z,8.55
2022-11-03T14:56:24.290Z,8.56
2022-11-03T14:58:50.852Z,8.57
2022-11-03T15:01:18.039Z,8.57
2022-11-03T15:03:45.223Z,8.60
2022-11-03T15:06:12.937Z,8.58
2022-11-03T15:08:39.378Z,8.58
2022-11-03T15:11:07.899Z,8.58
2022-11-03T15:13:39.526Z,8.61
2022-11-03T15:16:10.494Z,8.62
2022-11-03T15:18:36.887Z,8.57
2022-11-03T15:21:03.894Z,8.62
2022-11-03T15:26:16.956Z,8.63
2022-11-03T15:28:43.426Z,8.61
2022-11-03T15:31:09.869Z,8.58
2022-11-03T15:33:36.355Z,8.59
2022-11-03T15:36:04.645Z,8.58
2022-11-03T15:38:31.365Z,8.55
2022-11-03T15:41:15.805Z,8.56
2022-11-03T15:43:46.553Z,8.55
2022-11-03T15:46:14.134Z,8.57
2022-11-03T15:48:40.780Z,8.62
2022-11-03T15:51:07.314Z,8.58
2022-11-03T15:53:33.759Z,8.58
2022-11-03T15:56:00.480Z,8.57
2022-11-03T15:58:27.577Z,8.56
2022-11-03T16:00:54.070Z,8.57
2022-11-03T16:03:20.667Z,8.60
2022-11-03T16:05:47.851Z,8.63
2022-11-03T16:08:14.251Z,8.64
2022-11-03T16:10:45.911Z,8.65
2022-11-03T16:13:16.117Z,8.66
2022-11-03T16:15:42.526Z,8.64
2022-11-03T16:18:09.378Z,8.65
2022-11-03T16:20:38.311Z,8.67
2022-11-03T16:23:04.722Z,8.69
2022-11-03T16:25:31.223Z,8.68
2022-11-03T16:27:57.701Z,8.70
2022-11-03T16:30:24.153Z,8.68
2022-11-03T16:32:53.190Z,8.72
2022-11-03T16:35:20.331Z,8.73
2022-11-03T16:37:46.869Z,8.72
2022-11-03T16:40:18.775Z,8.73
2022-11-03T16:42:46.040Z,8.73
2022-11-03T16:45:19.273Z,8.73
2022-11-03T16:47:46.450Z,8.73
2022-11-03T16:50:13.296Z,8.70
2022-11-03T16:52:39.750Z,8.71
2022-11-03T16:55:06.465Z,8.72
2022-11-03T16:57:32.861Z,8.71
2022-11-03T16:59:59.554Z,8.72
2022-11-03T17:02:28.071Z,8.72
2022-11-03T17:04:55.406Z,8.75
2022-11-03T17:07:21.930Z,8.71
2022-11-03T17:09:48.630Z,8.75
2022-11-03T17:12:17.329Z,8.77
2022-11-03T17:14:43.725Z,8.74
2022-11-03T17:17:12.841Z,8.75
2022-11-03T17:19:39.302Z,8.76
2022-11-03T17:22:05.862Z,8.78
2022-11-03T17:24:32.720Z,8.81
2022-11-03T17:26:59.313Z,8.85
2022-11-03T17:29:41.562Z,8.83
2022-11-03T17:32:10.906Z,8.84
2022-11-03T17:34:37.536Z,8.82
2022-11-03T17:37:04.107Z,8.83
2022-11-03T17:39:33.695Z,8.86
2022-11-03T17:42:16.886Z,8.83
2022-11-03T17:44:49.014Z,8.86
2022-11-03T17:47:16.482Z,8.92
2022-11-03T17:49:43.593Z,8.91
2022-11-03T17:52:23.333Z,8.94
2022-11-03T17:54:55.739Z,8.91
2022-11-03T17:57:22.831Z,8.92
2022-11-03T17:59:50.919Z,8.64
2022-11-03T18:02:19.041Z,8.49
2022-11-03T18:04:46.642Z,8.64
2022-11-03T18:07:19.809Z,8.73
2022-11-03T18:09:46.259Z,8.79
2022-11-03T18:12:43.799Z,8.85
2022-11-03T18:15:16.426Z,8.90
2022-11-03T18:17:43.112Z,8.89
2022-11-03T18:20:14.147Z,8.84
2022-11-03T18:22:40.582Z,8.52
2022-11-03T18:25:14.530Z,8.59
2022-11-03T18:27:41.018Z,8.49
2022-11-03T18:30:09.171Z,8.46
2022-11-03T18:32:36.151Z,8.52
2022-11-03T18:35:03.175Z,8.35
2022-11-03T18:37:30.837Z,8.47
2022-11-03T18:39:57.253Z,8.35
2022-11-03T18:42:23.683Z,8.34
2022-11-03T18:44:50.975Z,8.42
2022-11-03T18:47:17.503Z,8.28
2022-11-03T18:49:44.093Z,8.42
2022-11-03T18:52:15.130Z,8.31
2022-11-03T18:54:45.089Z,8.35
2022-11-03T18:57:12.421Z,8.35
2022-11-03T18:59:44.582Z,8.22
2022-11-03T19:02:21.348Z,8.35
2022-11-03T19:04:48.922Z,8.17
2022-11-03T19:07:26.018Z,8.26
2022-11-03T19:09:52.434Z,8.21
2022-11-03T19:12:19.285Z,8.19
2022-11-03T19:14:48.126Z,8.30
2022-11-03T19:17:22.914Z,8.13
2022-11-03T19:19:50.221Z,8.24
2022-11-03T19:22:17.961Z,8.14
2022-11-03T19:24:45.209Z,8.11
2022-11-03T19:27:22.896Z,8.18
2022-11-03T19:29:49.322Z,8.02
2022-11-03T19:32:21.883Z,8.11
2022-11-03T19:34:50.375Z,8.05
2022-11-03T19:37:16.884Z,8.02
2022-11-03T19:39:43.449Z,8.08
2022-11-03T19:42:28.722Z,7.95
2022-11-03T19:44:59.144Z,8.06
2022-11-03T19:47:33.594Z,7.98
2022-11-03T19:50:00.906Z,7.94
2022-11-03T19:52:28.329Z,8.04
2022-11-03T19:54:55.804Z,7.87
2022-11-03T19:57:22.388Z,7.93
2022-11-03T19:59:48.927Z,7.90
2022-11-03T20:02:15.709Z,7.78
2022-11-03T20:04:46.661Z,7.91
2022-11-03T20:07:15.108Z,7.81
2022-11-03T20:09:41.704Z,7.77
2022-11-03T20:12:10.031Z,7.86
2022-11-03T20:14:36.548Z,7.71
2022-11-03T20:17:11.445Z,7.81
2022-11-03T20:19:40.309Z,7.81
2022-11-03T20:22:09.940Z,7.73
2022-11-03T20:24:36.897Z,7.86
2022-11-03T20:27:03.423Z,7.75
2022-11-03T20:29:34.671Z,7.76
2022-11-03T20:32:01.390Z,7.86
2022-11-03T20:34:27.898Z,7.75
2022-11-03T20:36:54.615Z,7.83
2022-11-03T20:39:21.175Z,7.84
2022-11-03T20:41:48.961Z,7.72
2022-11-03T20:44:15.876Z,7.86
2022-11-03T20:46:42.949Z,7.79
2022-11-03T20:49:09.762Z,7.75
2022-11-03T20:51:40.974Z,7.92
2022-11-03T20:54:17.923Z,7.78
2022-11-03T20:56:44.599Z,7.81
2022-11-03T20:59:12.326Z,7.91
2022-11-03T21:01:39.584Z,7.76
2022-11-03T21:04:13.945Z,7.81
2022-11-03T21:06:40.427Z,7.85
2022-11-03T21:09:10.726Z,7.72
2022-11-03T21:11:39.965Z,7.83
2022-11-03T21:14:21.294Z,7.77
2022-11-03T21:17:06.445Z,7.72
2022-11-03T21:19:41.648Z,7.85
2022-11-03T21:22:50.949Z,7.74
2022-11-03T21:25:02.841Z,7.79
2022-11-03T21:27:29.267Z,7.81
2022-11-03T21:29:59.430Z,7.70
2022-11-03T21:32:26.535Z,7.84
2022-11-03T21:34:52.954Z,7.75
2022-11-03T21:37:19.590Z,7.72
2022-11-03T21:39:46.233Z,7.85
2022-11-03T21:42:31.826Z,7.76
2022-11-03T21:44:58.789Z,7.77
2022-11-03T21:47:25.340Z,7.87
2022-11-03T21:49:51.979Z,7.74
2022-11-03T21:52:38.670Z,7.79
2022-11-03T21:55:05.382Z,7.84
2022-11-03T21:57:31.867Z,7.71
2022-11-03T22:00:01.128Z,7.82
2022-11-03T22:02:29.976Z,7.79
2022-11-03T22:04:57.039Z,7.70
2022-11-03T22:07:24.713Z,7.83
2022-11-03T22:09:51.239Z,7.75
2022-11-03T22:12:17.724Z,7.77
2022-11-03T22:15:02.752Z,7.84
2022-11-03T22:17:29.217Z,7.73
2022-11-03T22:20:16.736Z,7.80
2022-11-03T22:23:01.666Z,7.75
2022-11-03T22:25:46.524Z,7.78
2022-11-03T22:28:14.876Z,7.82
2022-11-03T22:30:59.963Z,7.73
2022-11-03T22:33:26.902Z,7.84
2022-11-03T22:36:20.261Z,7.75
2022-11-03T22:39:06.814Z,7.84
2022-11-03T22:41:51.881Z,7.84
2022-11-03T22:44:37.098Z,7.83
2022-11-03T22:47:05.630Z,7.86
2022-11-03T22:49:34.483Z,7.79
2022-11-03T22:52:00.994Z,7.97
2022-11-03T22:54:27.381Z,7.82
2022-11-03T22:56:53.928Z,7.82
2022-11-03T22:59:20.373Z,7.89
2022-11-03T23:01:47.062Z,7.78
2022-11-03T23:04:14.418Z,7.87
2022-11-03T23:06:41.123Z,7.87
2022-11-03T23:09:08.063Z,7.80
2022-11-03T23:11:35.171Z,7.89
2022-11-03T23:14:03.385Z,7.75
2022-11-03T23:16:31.175Z,7.89
2022-11-03T23:19:18.630Z,7.85
2022-11-03T23:21:45.998Z,7.85
2022-11-03T23:24:31.474Z,7.90
2022-11-03T23:26:59.562Z,7.76
2022-11-03T23:29:26.364Z,7.92
2022-11-03T23:31:53.506Z,7.78
2022-11-03T23:34:19.945Z,7.83
2022-11-03T23:36:49.027Z,7.86
2022-11-03T23:39:18.950Z,7.75
2022-11-03T23:41:45.601Z,7.88
2022-11-03T23:44:12.534Z,7.75
2022-11-03T23:46:59.798Z,7.78
2022-11-03T23:49:28.661Z,7.78
2022-11-03T23:51:57.369Z,7.70
2022-11-03T23:54:26.330Z,7.80
2022-11-03T23:57:11.153Z,7.66
2022-11-03T23:59:37.692Z,7.74
